createdAt,value
2019-02-08T00:00:02.329Z,998.96
2019-02-08T00:05:01.637Z,999.01
2019-02-08T00:10:02.009Z,999.08
2019-02-08T00:15:01.329Z,999.08
2019-02-08T00:20:01.953Z,999.08
2019-02-08T00:25:02.242Z,999.03
2019-02-08T00:30:01.600Z,999.02
2019-02-08T00:35:01.970Z,999.06
2019-02-08T00:40:02.206Z,998.96
2019-02-08T00:45:01.524Z,998.96
2019-02-08T00:50:01.839Z,998.9
2019-02-08T00:55:02.104Z,998.91
2019-02-08T01:00:01.388Z,998.87
2019-02-08T01:05:01.740Z,998.95
2019-02-08T01:10:02.038Z,998.98
2019-02-08T01:15:01.326Z,998.91
2019-02-08T01:20:01.643Z,999.03
2019-02-08T01:25:01.885Z,998.97
2019-02-08T01:30:02.132Z,998.94
2019-02-08T01:35:01.532Z,998.96
2019-02-08T01:40:01.932Z,998.91
2019-02-08T01:45:02.220Z,999.02
2019-02-08T01:50:01.669Z,999.01
2019-02-08T01:55:02.011Z,998.96
2019-02-08T02:00:01.261Z,998.88
2019-02-08T02:05:01.865Z,998.88
2019-02-08T02:10:02.150Z,998.84
2019-02-08T02:15:01.462Z,998.95
2019-02-08T02:20:01.638Z,998.98
2019-02-08T02:25:01.913Z,999.06
2019-02-08T02:30:02.162Z,999.03
2019-02-08T02:35:01.483Z,998.99
2019-02-08T02:40:01.798Z,998.98
2019-02-08T02:45:02.137Z,999.02
2019-02-08T02:50:01.448Z,998.96
2019-02-08T02:55:01.737Z,998.92
2019-02-08T03:00:01.995Z,998.9
2019-02-08T03:05:01.315Z,998.91
2019-02-08T03:10:01.597Z,998.89
2019-02-08T03:15:01.846Z,998.9
2019-02-08T03:20:02.212Z,998.92
2019-02-08T03:25:01.516Z,998.83
2019-02-08T03:30:01.744Z,998.82
2019-02-08T03:35:02.023Z,998.76
2019-02-08T03:40:02.163Z,998.7
2019-02-08T03:45:01.428Z,998.69
2019-02-08T03:50:01.716Z,998.71
2019-02-08T03:55:02.022Z,998.67
2019-02-08T04:00:02.116Z,998.63
2019-02-08T04:05:01.428Z,998.61
2019-02-08T04:10:01.723Z,998.49
2019-02-08T04:15:02.042Z,998.53
2019-02-08T04:20:01.417Z,998.49
2019-02-08T04:25:01.700Z,998.52
2019-02-08T04:30:02.050Z,998.42
2019-02-08T04:35:01.414Z,998.49
2019-02-08T04:40:01.818Z,998.44
2019-02-08T04:45:02.086Z,998.46
2019-02-08T04:50:01.357Z,998.43
2019-02-08T04:55:01.642Z,998.5
2019-02-08T05:00:01.935Z,998.47
2019-02-08T05:05:02.213Z,998.53
2019-02-08T05:10:01.454Z,998.5
2019-02-08T05:15:01.727Z,998.48
2019-02-08T05:20:02.067Z,998.41
2019-02-08T05:25:01.327Z,998.37
2019-02-08T05:30:01.615Z,998.28
2019-02-08T05:35:02.229Z,998.21
2019-02-08T05:40:01.603Z,998.22
2019-02-08T05:45:01.932Z,998.2
2019-02-08T05:50:02.154Z,998.18
2019-02-08T05:55:01.464Z,998.17
2019-02-08T06:00:01.807Z,998.12
2019-02-08T06:05:02.110Z,998.09
2019-02-08T06:10:01.515Z,998.13
2019-02-08T06:15:01.838Z,998.21
2019-02-08T06:20:02.130Z,998.14
2019-02-08T06:25:04.987Z,998.21
2019-02-08T06:30:01.314Z,998.23
2019-02-08T06:35:01.709Z,998.3
2019-02-08T06:40:02.069Z,998.24
2019-02-08T06:45:01.414Z,998.16
2019-02-08T06:50:01.691Z,998.26
2019-02-08T06:55:02.011Z,998.22
2019-02-08T07:00:01.321Z,998.22
2019-02-08T07:05:01.629Z,998.27
2019-02-08T07:10:01.946Z,998.28
2019-02-08T07:15:02.218Z,998.31
2019-02-08T07:20:01.514Z,998.22
2019-02-08T07:25:01.821Z,998.27
2019-02-08T07:30:02.103Z,998.35
2019-02-08T07:35:01.437Z,998.28
2019-02-08T07:40:01.722Z,998.2
2019-02-08T07:45:01.994Z,998.2
2019-02-08T07:50:01.320Z,998.21
2019-02-08T07:55:01.675Z,998.23
2019-02-08T08:00:01.957Z,998.22
2019-02-08T08:05:02.215Z,998.29
2019-02-08T08:10:01.506Z,998.3
2019-02-08T08:15:01.793Z,998.33
2019-02-08T08:20:02.074Z,998.43
2019-02-08T08:25:01.304Z,998.42
2019-02-08T08:30:01.649Z,998.35
2019-02-08T08:35:01.973Z,998.29
2019-02-08T08:40:02.206Z,998.33
2019-02-08T08:45:01.461Z,998.28
2019-02-08T08:50:01.749Z,998.31
2019-02-08T08:55:02.043Z,998.24
2019-02-08T09:00:01.321Z,998.19
2019-02-08T09:05:01.642Z,998.25
2019-02-08T09:10:01.954Z,998.23
2019-02-08T09:15:02.216Z,998.1
2019-02-08T09:20:01.482Z,998.16
2019-02-08T09:25:01.704Z,998.09
2019-02-08T09:30:01.997Z,998.07
2019-02-08T09:35:01.300Z,998.05
2019-02-08T09:40:01.568Z,997.96
2019-02-08T09:45:01.861Z,997.85
2019-02-08T09:50:02.141Z,997.77
2019-02-08T09:55:01.391Z,997.67
2019-02-08T10:00:01.642Z,997.67
2019-02-08T10:05:01.933Z,997.6
2019-02-08T10:10:02.229Z,997.67
2019-02-08T10:15:01.588Z,997.64
2019-02-08T10:20:01.895Z,997.49
2019-02-08T10:25:02.147Z,997.58
2019-02-08T10:30:01.492Z,997.61
2019-02-08T10:35:01.818Z,997.6
2019-02-08T10:40:02.087Z,997.53
2019-02-08T10:45:01.347Z,997.47
2019-02-08T10:50:01.676Z,997.38
2019-02-08T10:55:01.967Z,997.38
2019-02-08T11:00:02.226Z,997.21
2019-02-08T11:05:01.533Z,997.1
2019-02-08T11:10:01.791Z,997.12
2019-02-08T11:15:02.059Z,997.21
2019-02-08T11:20:01.362Z,997.13
2019-02-08T11:25:01.665Z,997.1
2019-02-08T11:30:01.999Z,997.04
2019-02-08T11:35:01.298Z,996.95
2019-02-08T11:40:01.576Z,996.88
2019-02-08T11:45:01.867Z,996.88
2019-02-08T11:50:02.213Z,996.81
2019-02-08T11:55:01.513Z,996.59
2019-02-08T12:00:01.809Z,996.61
2019-02-08T12:05:02.143Z,996.53
2019-02-08T12:10:01.454Z,996.49
2019-02-08T12:15:01.810Z,996.45
2019-02-08T12:20:02.119Z,996.43
2019-02-08T12:25:01.438Z,996.47
2019-02-08T12:30:01.753Z,996.37
2019-02-08T12:35:02.113Z,996.31
2019-02-08T12:40:01.417Z,996.2
2019-02-08T12:45:01.743Z,996.08
2019-02-08T12:50:02.040Z,996.03
2019-02-08T12:55:01.332Z,996.02
2019-02-08T13:00:01.604Z,995.87
2019-02-08T13:05:01.860Z,995.79
2019-02-08T13:10:02.113Z,995.86
2019-02-08T13:15:01.401Z,995.81
2019-02-08T13:20:01.681Z,995.79
2019-02-08T13:25:02.003Z,995.87
2019-02-08T13:30:01.307Z,995.8
2019-02-08T13:35:01.659Z,995.79
2019-02-08T13:40:02.021Z,995.69
2019-02-08T13:45:01.324Z,995.58
2019-02-08T13:50:01.706Z,995.57
2019-02-08T13:55:02.006Z,995.55
2019-02-08T14:00:01.291Z,995.41
2019-02-08T14:05:01.633Z,995.35
2019-02-08T14:10:01.963Z,995.44
2019-02-08T14:15:02.200Z,995.5
2019-02-08T14:20:01.814Z,995.57
2019-02-08T14:25:02.127Z,995.52
2019-02-08T14:30:01.451Z,995.43
2019-02-08T14:35:01.770Z,995.3
2019-02-08T14:40:02.027Z,995.19
2019-02-08T14:45:01.452Z,994.98
2019-02-08T14:50:01.766Z,994.77
2019-02-08T14:55:02.028Z,994.74
2019-02-08T15:00:01.333Z,994.69
2019-02-08T15:05:02.048Z,994.54
2019-02-08T15:10:01.379Z,994.47
2019-02-08T15:15:01.643Z,994.42
2019-02-08T15:20:02.003Z,994.38
2019-02-08T15:25:01.352Z,994.39
2019-02-08T15:30:01.660Z,994.36
2019-02-08T15:35:01.970Z,994.25
2019-02-08T15:40:02.108Z,994.15
2019-02-08T15:45:01.502Z,994.07
2019-02-08T15:50:01.878Z,993.91
2019-02-08T15:55:02.213Z,993.9
2019-02-08T16:00:01.578Z,993.82
2019-02-08T16:05:01.924Z,993.72
2019-02-08T16:10:02.171Z,993.71
2019-02-08T16:15:01.446Z,993.66
2019-02-08T16:20:01.773Z,993.46
2019-02-08T16:25:02.040Z,993.26
2019-02-08T16:30:01.323Z,993.35
2019-02-08T16:35:01.653Z,993.41
2019-02-08T16:40:01.977Z,993.31
2019-02-08T16:45:02.209Z,993.3
2019-02-08T16:50:01.502Z,993.28
2019-02-08T16:55:01.815Z,993.15
2019-02-08T17:00:02.114Z,993.12
2019-02-08T17:05:01.364Z,993.09
2019-02-08T17:10:01.656Z,993.14
2019-02-08T17:15:01.986Z,993.1
2019-02-08T17:20:02.276Z,993.05
2019-02-08T17:25:01.521Z,993.07
2019-02-08T17:30:01.869Z,992.9
2019-02-08T17:35:02.125Z,992.9
2019-02-08T17:40:01.468Z,992.83
2019-02-08T17:45:01.761Z,992.79
2019-02-08T17:50:02.076Z,992.65
2019-02-08T17:55:01.345Z,992.72
2019-02-08T18:00:01.903Z,992.67
2019-02-08T18:05:02.164Z,992.61
2019-02-08T18:10:01.452Z,992.62
2019-02-08T18:15:01.745Z,992.53
2019-02-08T18:20:02.091Z,992.51
2019-02-08T18:25:01.380Z,992.5
2019-02-08T18:30:01.688Z,992.39
2019-02-08T18:35:02.010Z,992.34
2019-02-08T18:40:01.373Z,992.17
2019-02-08T18:45:01.643Z,992
2019-02-08T18:50:01.947Z,991.97
2019-02-08T18:55:02.340Z,991.85
2019-02-08T19:00:01.709Z,991.75
2019-02-08T19:05:01.966Z,991.62
2019-02-08T19:10:02.200Z,991.51
2019-02-08T19:15:01.527Z,991.36
2019-02-08T19:20:01.840Z,991.41
2019-02-08T19:25:02.101Z,991.31
2019-02-08T19:30:01.400Z,991.16
2019-02-08T19:35:01.798Z,991.09
2019-02-08T19:40:02.082Z,990.99
2019-02-08T19:45:01.359Z,990.84
2019-02-08T19:50:01.652Z,990.79
2019-02-08T19:55:01.984Z,990.81
2019-02-08T20:00:02.224Z,990.71
2019-02-08T20:05:01.559Z,990.73
2019-02-08T20:10:01.868Z,990.67
2019-02-08T20:15:02.191Z,990.51
2019-02-08T20:20:01.595Z,990.55
2019-02-08T20:25:01.862Z,990.4
2019-02-08T20:30:02.212Z,990.25
2019-02-08T20:35:01.523Z,990.2
2019-02-08T20:40:02.056Z,990.15
2019-02-08T20:45:01.454Z,990.11
2019-02-08T20:50:01.813Z,989.98
2019-02-08T20:55:02.070Z,989.98
2019-02-08T21:00:01.350Z,989.98
2019-02-08T21:05:01.655Z,989.77
2019-02-08T21:10:01.996Z,989.77
2019-02-08T21:15:01.461Z,989.8
2019-02-08T21:20:01.740Z,989.92
2019-02-08T21:25:02.009Z,989.82
2019-02-08T21:30:01.405Z,989.61
2019-02-08T21:35:01.739Z,989.36
2019-02-08T21:40:02.039Z,989.23
2019-02-08T21:45:01.330Z,989.03
2019-02-08T21:50:01.659Z,988.89
2019-02-08T21:55:01.987Z,988.7
2019-02-08T22:00:02.223Z,988.71
2019-02-08T22:05:01.558Z,988.62
2019-02-08T22:10:01.887Z,988.66
2019-02-08T22:15:02.157Z,988.58
2019-02-08T22:20:01.476Z,988.54
2019-02-08T22:25:01.715Z,988.42
2019-02-08T22:30:02.019Z,988.44
2019-02-08T22:35:01.313Z,988.31
2019-02-08T22:40:01.615Z,988.34
2019-02-08T22:45:09.290Z,988.11
2019-02-08T22:50:01.585Z,988.29
2019-02-08T22:55:01.898Z,988.31
2019-02-08T23:00:02.176Z,988.16
2019-02-08T23:05:01.509Z,988.2
2019-02-08T23:10:01.805Z,988.07
2019-02-08T23:15:02.081Z,988.13
2019-02-08T23:20:01.380Z,988.02
2019-02-08T23:25:01.708Z,987.82
2019-02-08T23:30:02.008Z,987.77
2019-02-08T23:35:01.311Z,987.79
2019-02-08T23:40:01.603Z,988.07
2019-02-08T23:45:01.903Z,987.99
2019-02-08T23:50:02.133Z,987.95
2019-02-08T23:55:01.434Z,987.88
